Time;durP1;ratioP1;P1;durP2;ratioP2;P2;SDS_P1;SDS_P2;PMS_P1;PMS_P2;Temp;Humidity;BMP_temperature;BMP_pressure;BME280_temperature;BME280_humidity;BME280_pressure;Samples;Min_cycle;Max_cycle;Signal;HPM_P1;HPM_P2
2023/11/20 00:01:43;;;;;;;11.53;2.90;;;11.50;71.60;;;;;;5032763;28;20768;-76
2023/11/20 00:04:08;;;;;;;11.60;2.50;;;11.50;71.70;;;;;;5031695;28;20456;-75
2023/11/20 00:06:34;;;;;;;9.10;2.27;;;11.50;71.80;;;;;;5014734;28;20200;-76
2023/11/20 00:08:59;;;;;;;6.23;2.07;;;11.50;71.70;;;;;;5032398;28;20249;-76
2023/11/20 00:11:27;;;;;;;9.27;2.60;;;11.50;71.80;;;;;;5031793;28;20286;-75
2023/11/20 00:13:52;;;;;;;12.50;3.33;;;11.50;71.70;;;;;;5031736;28;20216;-76
2023/11/20 00:16:18;;;;;;;6.73;1.90;;;11.50;71.60;;;;;;5032537;28;20432;-75
2023/11/20 00:18:44;;;;;;;10.30;3.20;;;11.50;71.70;;;;;;5033095;28;20239;-75
2023/11/20 00:21:09;;;;;;;4.83;2.43;;;11.40;72.00;;;;;;5037497;28;20548;-75
2023/11/20 00:23:35;;;;;;;14.73;2.60;;;11.40;72.00;;;;;;5033857;28;20216;-75
2023/11/20 00:26:01;;;;;;;14.07;2.63;;;11.40;72.10;;;;;;5035900;28;20173;-74
2023/11/20 00:28:26;;;;;;;9.00;3.30;;;11.30;72.30;;;;;;5016857;28;20189;-74
2023/11/20 00:30:52;;;;;;;8.83;2.43;;;11.30;72.40;;;;;;5033485;28;20460;-76
2023/11/20 00:33:18;;;;;;;15.07;3.30;;;11.30;72.70;;;;;;5032181;28;20216;-76
2023/11/20 00:35:43;;;;;;;7.40;2.63;;;11.30;73.00;;;;;;5032852;28;20207;-76
2023/11/20 00:38:09;;;;;;;8.40;3.17;;;11.20;73.20;;;;;;5014076;28;20803;-74
2023/11/20 00:40:35;;;;;;;9.97;2.37;;;11.20;73.30;;;;;;5032372;28;20213;-74
2023/11/20 00:43:00;;;;;;;12.87;2.60;;;11.20;73.30;;;;;;5034921;28;20185;-74
2023/11/20 00:45:26;;;;;;;15.63;3.10;;;11.10;73.60;;;;;;5015932;28;20189;-75
2023/11/20 00:47:52;;;;;;;11.23;3.00;;;11.10;73.70;;;;;;5032361;28;20185;-75
2023/11/20 00:50:18;;;;;;;9.93;2.40;;;11.10;74.00;;;;;;5031722;28;20221;-75
2023/11/20 00:52:44;;;;;;;10.60;2.40;;;11.00;74.20;;;;;;5030798;28;20970;-75
2023/11/20 00:55:10;;;;;;;12.93;3.00;;;11.00;74.20;;;;;;5031714;28;20454;-75
2023/11/20 00:57:39;;;;;;;10.90;2.40;;;11.00;74.20;;;;;;5031345;28;20423;-75
2023/11/20 01:00:06;;;;;;;5.27;2.50;;;10.90;74.20;;;;;;5031657;28;20197;-75
2023/11/20 01:02:32;;;;;;;15.07;2.83;;;10.90;74.20;;;;;;5013497;28;20432;-77
2023/11/20 01:04:58;;;;;;;9.53;2.60;;;10.90;74.20;;;;;;5030864;28;20491;-75
2023/11/20 01:07:24;;;;;;;10.53;2.30;;;11.00;74.00;;;;;;5031234;28;20451;-75
2023/11/20 01:09:49;;;;;;;12.60;3.30;;;10.90;74.30;;;;;;5031314;28;20511;-74
2023/11/20 01:12:15;;;;;;;11.27;2.77;;;11.00;74.20;;;;;;5031579;28;20185;-75
2023/11/20 01:14:41;;;;;;;8.00;2.00;;;11.00;73.90;;;;;;5030996;28;20209;-75
2023/11/20 01:17:06;;;;;;;6.30;2.20;;;11.00;74.00;;;;;;5031818;28;20189;-74
2023/11/20 01:19:32;;;;;;;9.30;2.80;;;10.90;74.00;;;;;;5031494;28;20189;-74
2023/11/20 01:21:57;;;;;;;6.23;2.40;;;11.00;73.90;;;;;;5034211;28;20677;-74
2023/11/20 01:24:23;;;;;;;9.43;2.60;;;11.00;73.70;;;;;;5037746;28;20205;-74
2023/11/20 01:26:49;;;;;;;12.63;2.80;;;11.00;73.70;;;;;;5015418;28;20737;-75
2023/11/20 01:29:14;;;;;;;14.40;3.17;;;11.00;73.60;;;;;;5031178;28;20280;-75
2023/11/20 01:31:40;;;;;;;10.23;3.13;;;11.00;73.50;;;;;;5030891;28;20215;-75
2023/11/20 01:34:06;;;;;;;10.47;2.40;;;11.10;73.30;;;;;;5030218;28;20213;-73
2023/11/20 01:36:31;;;;;;;8.80;2.40;;;11.10;73.20;;;;;;5030773;28;20181;-75
2023/11/20 01:38:57;;;;;;;9.40;2.60;;;11.20;73.20;;;;;;5007869;28;20198;-75
2023/11/20 01:41:22;;;;;;;13.70;2.37;;;11.20;73.30;;;;;;5049768;28;20665;-76
2023/11/20 01:43:48;;;;;;;12.90;2.60;;;11.20;73.60;;;;;;5049857;28;20208;-75
2023/11/20 01:46:15;;;;;;;6.43;2.43;;;11.20;73.50;;;;;;5050378;28;20184;-77
2023/11/20 01:48:42;;;;;;;14.83;2.50;;;11.20;73.50;;;;;;5050459;28;20208;-75
2023/11/20 01:51:08;;;;;;;6.10;2.70;;;11.20;73.70;;;;;;5050152;28;20470;-76
2023/11/20 01:53:36;;;;;;;9.83;2.20;;;11.20;73.70;;;;;;5050115;28;20793;-76
2023/11/20 01:56:03;;;;;;;8.63;2.77;;;11.20;74.00;;;;;;5050837;28;20516;-75
2023/11/20 01:58:29;;;;;;;8.23;2.73;;;11.20;74.20;;;;;;5049889;28;20423;-75
2023/11/20 02:00:55;;;;;;;12.73;2.50;;;11.20;74.20;;;;;;5050417;28;20451;-76
2023/11/20 02:03:20;;;;;;;10.90;2.93;;;11.10;74.50;;;;;;5049794;28;21010;-76
2023/11/20 02:05:46;;;;;;;16.50;3.57;;;11.10;74.60;;;;;;5049334;28;20181;-75
2023/11/20 02:08:13;;;;;;;10.60;2.30;;;11.10;74.80;;;;;;5049987;28;20184;-75
2023/11/20 02:10:39;;;;;;;11.30;2.60;;;11.10;74.90;;;;;;5043642;28;20212;-75
2023/11/20 02:13:06;;;;;;;9.77;2.57;;;11.10;75.40;;;;;;5030029;28;20444;-76
2023/11/20 02:15:32;;;;;;;13.83;2.33;;;11.10;75.50;;;;;;5030902;28;20752;-75
2023/11/20 02:17:57;;;;;;;13.07;2.30;;;11.20;75.50;;;;;;5030133;28;20852;-76
2023/11/20 02:20:24;;;;;;;12.03;2.37;;;11.20;75.70;;;;;;5030539;28;20574;-74
2023/11/20 02:22:50;;;;;;;5.27;2.20;;;11.20;76.10;;;;;;5029991;28;20189;-75
2023/11/20 02:25:17;;;;;;;10.73;2.60;;;11.20;76.20;;;;;;5029986;28;20537;-76
2023/11/20 02:27:50;;;;;;;7.23;2.40;;;11.20;76.50;;;;;;5029697;28;20418;-75
2023/11/20 02:30:16;;;;;;;11.40;2.67;;;11.10;76.70;;;;;;5030161;28;21062;-75
2023/11/20 02:32:43;;;;;;;9.00;2.53;;;11.10;77.30;;;;;;5030719;28;20506;-76
2023/11/20 02:35:16;;;;;;;4.20;2.10;;;11.10;77.40;;;;;;5034143;28;20809;-75
2023/11/20 02:37:41;;;;;;;8.90;3.10;;;11.10;77.70;;;;;;5033355;28;20485;-75
2023/11/20 02:40:08;;;;;;;6.90;2.43;;;11.10;77.70;;;;;;5033870;28;20539;-74
2023/11/20 02:42:33;;;;;;;14.70;2.90;;;11.10;77.80;;;;;;5035747;28;20685;-75
2023/11/20 02:44:59;;;;;;;8.83;2.33;;;11.00;78.10;;;;;;5033780;28;20538;-76
2023/11/20 02:47:24;;;;;;;16.23;2.60;;;11.10;78.30;;;;;;5033380;28;20261;-76
2023/11/20 02:49:50;;;;;;;13.00;3.07;;;11.10;77.80;;;;;;5033430;28;20213;-74
2023/11/20 02:52:16;;;;;;;9.50;2.90;;;11.00;78.30;;;;;;5033380;28;20189;-76
2023/11/20 02:54:44;;;;;;;9.07;2.57;;;11.00;78.60;;;;;;5032886;28;20240;-77
2023/11/20 02:57:09;;;;;;;6.83;2.43;;;10.90;78.90;;;;;;5033608;28;20428;-76
2023/11/20 02:59:35;;;;;;;7.30;2.30;;;10.90;79.00;;;;;;5033153;28;20786;-75
2023/11/20 03:02:01;;;;;;;6.93;2.43;;;10.90;79.00;;;;;;5033584;28;20213;-75
2023/11/20 03:04:27;;;;;;;13.43;2.60;;;10.80;79.20;;;;;;5035240;28;20259;-74
2023/11/20 03:06:52;;;;;;;10.70;3.00;;;10.80;79.50;;;;;;5036427;28;20759;-75
2023/11/20 03:09:19;;;;;;;9.07;2.57;;;10.80;79.70;;;;;;5033559;28;20185;-75
2023/11/20 03:11:45;;;;;;;10.53;3.03;;;10.80;79.90;;;;;;5033634;28;20207;-75
2023/11/20 03:14:12;;;;;;;8.87;3.00;;;10.80;80.00;;;;;;5033007;28;20808;-74
2023/11/20 03:16:40;;;;;;;8.07;2.43;;;10.80;80.20;;;;;;5033153;28;20763;-74
2023/11/20 03:19:06;;;;;;;10.33;3.57;;;10.70;80.20;;;;;;5032537;28;20974;-75
2023/11/20 03:21:33;;;;;;;12.03;3.27;;;10.60;80.60;;;;;;5033021;28;20423;-75
2023/11/20 03:23:59;;;;;;;14.60;2.80;;;10.60;80.80;;;;;;5033216;28;20209;-74
2023/11/20 03:26:26;;;;;;;5.67;2.97;;;10.60;80.90;;;;;;5036153;28;20438;-74
2023/11/20 03:28:52;;;;;;;10.87;2.37;;;10.60;80.90;;;;;;5038732;28;20546;-75
2023/11/20 03:31:19;;;;;;;11.60;2.67;;;10.60;81.10;;;;;;5034777;28;20467;-76
2023/11/20 03:33:48;;;;;;;24.83;3.40;;;10.60;80.90;;;;;;5033184;28;20473;-75
2023/11/20 03:36:14;;;;;;;11.13;3.30;;;10.70;80.80;;;;;;5032929;28;20443;-76
2023/11/20 03:38:41;;;;;;;8.10;2.20;;;10.70;80.50;;;;;;5032863;28;20556;-75
2023/11/20 03:41:07;;;;;;;5.60;2.20;;;10.80;80.20;;;;;;5033282;28;20504;-75
2023/11/20 03:43:33;;;;;;;12.23;2.73;;;10.80;79.90;;;;;;5034026;28;20452;-76
2023/11/20 03:45:58;;;;;;;13.00;2.53;;;10.90;79.60;;;;;;5016845;28;20428;-75
2023/11/20 03:48:24;;;;;;;9.70;2.43;;;10.90;79.30;;;;;;5036682;28;20216;-75
2023/11/20 03:50:49;;;;;;;10.40;2.23;;;10.90;79.20;;;;;;5037705;28;20213;-74
2023/11/20 03:53:15;;;;;;;8.70;2.40;;;10.90;79.00;;;;;;5034402;28;20197;-76
2023/11/20 03:55:41;;;;;;;8.10;2.00;;;10.90;78.40;;;;;;5033872;28;20196;-75
2023/11/20 03:58:06;;;;;;;16.17;2.40;;;11.00;78.40;;;;;;5033172;28;20196;-76
2023/11/20 04:00:32;;;;;;;10.53;2.17;;;11.00;78.00;;;;;;5033189;28;20189;-75
2023/11/20 04:03:01;;;;;;;11.23;2.60;;;11.10;77.40;;;;;;5032386;28;20214;-75
2023/11/20 04:05:26;;;;;;;13.77;3.13;;;11.10;77.60;;;;;;5034292;28;20185;-74
2023/11/20 04:07:52;;;;;;;5.70;1.93;;;11.10;77.30;;;;;;5034995;28;20554;-74
2023/11/20 04:10:18;;;;;;;5.90;2.03;;;11.20;75.90;;;;;;5016393;28;20209;-73
2023/11/20 04:12:46;;;;;;;9.63;2.97;;;11.20;76.10;;;;;;5031725;28;20632;-75
2023/11/20 04:15:12;;;;;;;13.10;2.80;;;11.30;75.40;;;;;;5031820;28;20717;-76
2023/11/20 04:17:38;;;;;;;12.27;3.33;;;11.40;75.20;;;;;;5031833;28;20432;-75
2023/11/20 04:20:05;;;;;;;9.90;2.20;;;11.50;74.60;;;;;;5033264;28;20189;-75
2023/11/20 04:22:32;;;;;;;11.73;2.30;;;11.50;74.00;;;;;;5033420;28;20950;-76
2023/11/20 04:24:59;;;;;;;7.40;2.40;;;11.60;74.20;;;;;;5032815;28;20862;-75
2023/11/20 04:27:24;;;;;;;8.63;2.70;;;11.60;74.00;;;;;;5033865;28;20730;-77
2023/11/20 04:29:50;;;;;;;11.00;2.10;;;11.60;74.20;;;;;;5032829;28;20795;-75
2023/11/20 04:32:16;;;;;;;7.70;2.37;;;11.60;73.70;;;;;;5033421;28;20193;-76
2023/11/20 04:34:42;;;;;;;14.87;2.37;;;11.60;73.90;;;;;;5033563;28;20457;-76
2023/11/20 04:37:07;;;;;;;16.40;2.70;;;11.60;73.90;;;;;;5035240;28;20476;-75
2023/11/20 04:39:33;;;;;;;7.03;2.17;;;11.60;74.00;;;;;;5034404;28;20181;-74
2023/11/20 04:41:59;;;;;;;4.97;1.80;;;11.60;74.00;;;;;;5033540;28;20189;-74
2023/11/20 04:44:25;;;;;;;6.30;2.20;;;11.60;74.20;;;;;;5035831;28;20685;-74
2023/11/20 04:46:50;;;;;;;7.83;2.70;;;11.50;73.90;;;;;;5034666;28;20658;-75
2023/11/20 04:49:16;;;;;;;18.03;2.67;;;11.50;74.00;;;;;;5031446;28;20435;-76
2023/11/20 04:51:42;;;;;;;8.30;2.37;;;11.50;74.20;;;;;;5031876;28;20706;-75
2023/11/20 04:54:08;;;;;;;6.70;2.20;;;11.50;74.00;;;;;;5031191;28;20681;-77
2023/11/20 04:56:33;;;;;;;5.07;2.07;;;11.50;73.90;;;;;;5030774;28;20196;-76
2023/11/20 04:58:59;;;;;;;8.13;2.10;;;11.50;73.60;;;;;;5030853;28;20777;-75
2023/11/20 05:01:26;;;;;;;8.80;2.57;;;11.50;73.50;;;;;;5031580;28;20181;-75
2023/11/20 05:03:52;;;;;;;8.30;2.43;;;11.50;73.50;;;;;;5030808;28;20444;-76
2023/11/20 05:06:17;;;;;;;10.70;2.73;;;11.50;73.00;;;;;;5031740;28;20839;-75
2023/11/20 05:08:43;;;;;;;9.27;2.37;;;11.50;72.90;;;;;;5013591;28;20191;-75
2023/11/20 05:11:09;;;;;;;6.27;2.30;;;11.60;72.60;;;;;;5031566;28;20689;-74
2023/11/20 05:13:34;;;;;;;9.33;2.40;;;11.60;72.00;;;;;;5031259;28;20258;-74
2023/11/20 05:16:00;;;;;;;5.60;2.10;;;11.60;72.00;;;;;;5031970;28;20443;-76
2023/11/20 05:18:26;;;;;;;7.77;2.50;;;11.50;72.30;;;;;;5031523;28;20185;-75
2023/11/20 05:20:51;;;;;;;4.80;1.93;;;11.50;72.60;;;;;;5031823;28;20192;-75
2023/11/20 05:23:17;;;;;;;6.90;2.13;;;11.50;72.40;;;;;;5031545;28;20212;-75
2023/11/20 05:25:42;;;;;;;6.10;2.27;;;11.50;72.40;;;;;;5032230;28;20185;-74
2023/11/20 05:28:09;;;;;;;7.23;2.50;;;11.60;71.40;;;;;;5032685;28;20661;-75
2023/11/20 05:30:35;;;;;;;11.43;2.80;;;11.60;71.40;;;;;;5033723;28;20213;-75
2023/11/20 05:33:00;;;;;;;9.67;2.67;;;11.60;70.80;;;;;;5036674;28;20963;-74
2023/11/20 05:35:26;;;;;;;5.73;1.97;;;11.60;70.80;;;;;;5016638;28;20189;-75
2023/11/20 05:37:52;;;;;;;12.67;3.10;;;11.60;70.40;;;;;;5034677;28;20188;-74
2023/11/20 05:40:17;;;;;;;9.20;2.00;;;11.60;70.40;;;;;;5038004;28;20216;-74
2023/11/20 05:42:43;;;;;;;6.03;1.90;;;11.60;70.20;;;;;;5037414;28;20634;-75
2023/11/20 05:45:09;;;;;;;8.17;2.90;;;11.60;70.50;;;;;;5018684;28;20217;-74
2023/11/20 05:47:35;;;;;;;8.83;2.93;;;11.60;71.00;;;;;;5033171;28;20427;-73
2023/11/20 05:50:01;;;;;;;5.27;1.87;;;11.60;70.70;;;;;;5033823;28;20224;-76
2023/11/20 05:52:29;;;;;;;10.10;2.67;;;11.70;71.00;;;;;;5033940;28;20551;-75
2023/11/20 05:54:56;;;;;;;6.63;2.33;;;11.70;71.00;;;;;;5032315;28;20248;-74
2023/11/20 05:57:21;;;;;;;8.90;2.60;;;11.70;70.70;;;;;;5034839;28;20494;-75
2023/11/20 05:59:47;;;;;;;7.17;2.57;;;11.80;70.50;;;;;;5033744;28;20611;-75
2023/11/20 06:02:13;;;;;;;7.03;2.60;;;11.80;70.70;;;;;;5033505;28;20193;-75
2023/11/20 06:04:38;;;;;;;9.73;2.70;;;11.70;70.50;;;;;;5032648;28;20586;-75
2023/11/20 06:07:04;;;;;;;9.97;3.80;;;11.80;69.40;;;;;;5032042;28;20196;-76
2023/11/20 06:09:30;;;;;;;6.57;2.40;;;11.80;69.80;;;;;;5036120;28;20189;-75
2023/11/20 06:11:56;;;;;;;8.87;2.93;;;11.80;69.50;;;;;;5036022;28;20471;-76
2023/11/20 06:14:22;;;;;;;8.43;2.20;;;11.90;68.90;;;;;;5036731;28;20713;-75
2023/11/20 06:16:48;;;;;;;7.70;3.33;;;11.80;69.20;;;;;;5036469;28;20610;-76
2023/11/20 06:19:14;;;;;;;10.47;2.57;;;11.80;69.40;;;;;;5034587;28;20954;-76
2023/11/20 06:21:46;;;;;;;10.90;2.70;;;11.80;69.20;;;;;;5034812;28;20442;-76
2023/11/20 06:24:12;;;;;;;5.93;2.50;;;11.80;69.10;;;;;;5034443;28;20463;-75
2023/11/20 06:26:40;;;;;;;6.30;2.37;;;11.80;69.20;;;;;;5034750;28;20447;-76
2023/11/20 06:29:06;;;;;;;9.70;2.40;;;11.80;69.40;;;;;;5034422;28;20920;-76
2023/11/20 06:31:31;;;;;;;12.87;2.60;;;11.70;69.50;;;;;;5034957;28;20459;-75
2023/11/20 06:33:57;;;;;;;7.30;2.57;;;11.70;69.40;;;;;;5034755;28;20686;-75
2023/11/20 06:36:22;;;;;;;11.97;2.37;;;11.70;69.50;;;;;;5034538;28;20189;-77
2023/11/20 06:38:48;;;;;;;16.87;2.87;;;11.70;68.90;;;;;;5034462;28;20189;-76
2023/11/20 06:41:21;;;;;;;8.63;2.23;;;11.70;68.90;;;;;;5034104;28;20189;-76
2023/11/20 06:43:47;;;;;;;10.53;2.10;;;11.70;68.80;;;;;;5034301;28;20224;-76
2023/11/20 06:46:21;;;;;;;6.37;3.17;;;11.70;68.90;;;;;;5036496;28;20781;-74
2023/11/20 06:48:47;;;;;;;4.10;2.00;;;11.70;68.90;;;;;;5034338;28;20423;-74
2023/11/20 06:51:14;;;;;;;8.17;2.40;;;11.80;68.80;;;;;;5034112;28;20483;-75
2023/11/20 06:53:39;;;;;;;8.83;2.80;;;11.80;68.80;;;;;;5033171;28;20443;-76
2023/11/20 06:56:05;;;;;;;18.13;3.53;;;11.80;68.60;;;;;;5033684;28;20442;-74
2023/11/20 06:58:34;;;;;;;13.13;2.73;;;11.80;68.80;;;;;;5017900;28;20276;-74
2023/11/20 07:01:03;;;;;;;7.47;1.97;;;11.80;68.60;;;;;;5040488;28;20427;-74
2023/11/20 07:03:28;;;;;;;8.70;2.43;;;11.80;69.10;;;;;;5038335;28;20447;-75
2023/11/20 07:05:54;;;;;;;8.53;2.13;;;11.80;69.10;;;;;;5034867;28;20503;-76
2023/11/20 07:08:21;;;;;;;3.53;1.70;;;11.80;68.90;;;;;;5034599;28;20202;-75
2023/11/20 07:10:47;;;;;;;11.47;2.40;;;11.90;68.50;;;;;;5034414;28;20205;-74
2023/11/20 07:13:13;;;;;;;7.60;2.23;;;11.90;68.50;;;;;;5033324;28;20446;-75
2023/11/20 07:15:39;;;;;;;6.13;2.40;;;11.90;68.50;;;;;;5033534;28;20423;-75
2023/11/20 07:18:08;;;;;;;14.60;3.03;;;12.00;68.50;;;;;;5033169;28;20189;-75
2023/11/20 07:20:34;;;;;;;6.20;2.90;;;12.00;68.50;;;;;;5032747;28;20197;-75
2023/11/20 07:23:01;;;;;;;15.83;2.27;;;12.00;68.20;;;;;;5033237;28;20762;-76
2023/11/20 07:25:33;;;;;;;6.90;2.40;;;11.90;67.90;;;;;;5033552;28;20419;-76
2023/11/20 07:28:00;;;;;;;13.33;2.20;;;11.90;67.90;;;;;;5033497;28;20424;-76
2023/11/20 07:30:26;;;;;;;7.20;1.97;;;11.90;68.00;;;;;;5033735;28;20480;-75
2023/11/20 07:32:51;;;;;;;6.17;2.50;;;12.00;67.90;;;;;;5033460;28;20881;-76
2023/11/20 07:35:17;;;;;;;9.93;2.43;;;12.00;68.00;;;;;;5033667;28;20531;-75
2023/11/20 07:37:43;;;;;;;9.63;2.23;;;12.00;68.20;;;;;;5033322;28;20177;-75
2023/11/20 07:40:10;;;;;;;8.90;1.80;;;12.10;67.90;;;;;;5035362;28;20193;-75
2023/11/20 07:42:37;;;;;;;6.63;1.97;;;12.10;67.90;;;;;;5036319;28;20200;-74
2023/11/20 07:45:03;;;;;;;7.33;2.37;;;12.10;67.90;;;;;;5034129;28;20440;-74
2023/11/20 07:47:29;;;;;;;6.30;2.40;;;12.10;67.90;;;;;;5033701;28;20446;-76
2023/11/20 07:49:54;;;;;;;10.70;2.23;;;12.10;67.50;;;;;;5034534;28;20444;-75
2023/11/20 07:52:21;;;;;;;9.33;2.57;;;12.10;67.60;;;;;;5036965;28;20177;-75
2023/11/20 07:54:47;;;;;;;4.93;1.93;;;12.10;67.90;;;;;;5032892;28;20212;-76
2023/11/20 07:57:15;;;;;;;10.53;2.13;;;12.10;67.90;;;;;;5033635;28;20526;-76
2023/11/20 07:59:41;;;;;;;16.13;3.20;;;12.10;67.60;;;;;;5033170;28;20430;-76
2023/11/20 08:02:07;;;;;;;7.30;2.10;;;12.00;67.90;;;;;;5032992;28;20514;-76
2023/11/20 08:04:33;;;;;;;9.43;2.10;;;12.00;68.00;;;;;;5032384;28;20785;-75
2023/11/20 08:06:59;;;;;;;12.67;3.43;;;12.10;68.00;;;;;;5033968;28;20507;-76
2023/11/20 08:09:24;;;;;;;8.80;2.40;;;12.10;68.20;;;;;;5052975;28;20841;-78
2023/11/20 08:11:50;;;;;;;11.27;3.03;;;12.00;68.00;;;;;;5035993;28;20232;-77
2023/11/20 08:14:17;;;;;;;11.53;3.27;;;12.00;68.50;;;;;;5032400;28;20271;-76
2023/11/20 08:16:43;;;;;;;8.80;1.80;;;12.00;68.50;;;;;;5032292;28;20207;-76
2023/11/20 08:19:09;;;;;;;5.23;2.07;;;12.00;68.90;;;;;;5032301;28;20440;-76
2023/11/20 08:21:34;;;;;;;5.50;1.87;;;12.00;68.90;;;;;;5032175;28;20196;-76
2023/11/20 08:24:00;;;;;;;4.90;2.20;;;11.90;69.20;;;;;;5032098;28;20229;-77
2023/11/20 08:26:26;;;;;;;5.47;2.10;;;12.00;69.40;;;;;;5034471;28;20189;-77
2023/11/20 08:28:52;;;;;;;9.67;2.00;;;12.00;69.70;;;;;;5034686;28;20713;-75
2023/11/20 08:31:19;;;;;;;8.27;2.53;;;12.00;69.70;;;;;;5036954;28;20570;-76
2023/11/20 08:33:44;;;;;;;7.97;2.27;;;11.90;69.90;;;;;;5036124;28;20220;-76
2023/11/20 08:36:10;;;;;;;9.30;2.63;;;12.00;70.20;;;;;;5036013;28;20448;-75
2023/11/20 08:38:36;;;;;;;8.00;2.37;;;12.00;70.40;;;;;;5037188;28;20439;-76
2023/11/20 08:41:02;;;;;;;9.50;2.37;;;12.00;70.80;;;;;;5037310;28;20251;-77
2023/11/20 08:43:28;;;;;;;10.73;2.90;;;12.00;71.10;;;;;;5034253;28;20254;-75
2023/11/20 08:45:54;;;;;;;12.93;3.43;;;12.00;71.30;;;;;;5032444;28;20854;-76
2023/11/20 08:48:19;;;;;;;9.80;2.67;;;12.00;71.60;;;;;;5031608;28;20193;-75
2023/11/20 08:50:45;;;;;;;9.47;1.80;;;12.10;71.60;;;;;;5014661;28;20483;-77
2023/11/20 08:53:11;;;;;;;7.23;2.40;;;12.00;71.60;;;;;;5032305;28;20247;-75
2023/11/20 08:55:36;;;;;;;8.90;2.47;;;12.00;71.80;;;;;;5032246;28;20189;-77
2023/11/20 08:58:08;;;;;;;5.20;2.33;;;12.00;72.10;;;;;;5031770;28;20189;-77
2023/11/20 09:00:36;;;;;;;8.83;2.40;;;12.00;72.00;;;;;;5032088;28;20344;-76
2023/11/20 09:03:02;;;;;;;5.77;2.10;;;12.00;72.30;;;;;;5013728;28;20928;-76
2023/11/20 09:05:29;;;;;;;7.60;2.23;;;12.00;72.10;;;;;;5032700;28;20477;-76
2023/11/20 09:07:56;;;;;;;13.03;2.33;;;12.00;72.40;;;;;;5031663;28;20189;-76
2023/11/20 09:10:25;;;;;;;6.40;2.00;;;12.00;72.40;;;;;;5031565;28;21093;-76
2023/11/20 09:12:50;;;;;;;9.57;2.93;;;12.00;72.30;;;;;;5031086;28;20447;-76
2023/11/20 09:15:16;;;;;;;11.50;2.30;;;12.00;72.60;;;;;;5032021;28;20432;-76
2023/11/20 09:17:42;;;;;;;4.97;1.90;;;12.00;72.60;;;;;;5030924;28;20184;-76
2023/11/20 09:20:20;;;;;;;4.73;1.93;;;12.00;72.30;;;;;;5032949;28;20476;-76
2023/11/20 09:22:49;;;;;;;9.30;2.90;;;12.00;72.40;;;;;;5031742;28;20408;-77
2023/11/20 09:25:15;;;;;;;13.87;2.00;;;12.00;72.30;;;;;;5033463;28;20479;-77
2023/11/20 09:27:41;;;;;;;7.67;2.27;;;12.00;72.10;;;;;;5033161;28;20431;-76
2023/11/20 09:30:08;;;;;;;5.70;2.10;;;12.00;72.30;;;;;;5015162;28;20220;-76
2023/11/20 09:32:34;;;;;;;9.60;2.90;;;12.00;72.00;;;;;;5032582;28;20412;-75
2023/11/20 09:34:59;;;;;;;7.77;2.57;;;12.00;72.30;;;;;;5033765;28;20816;-76
2023/11/20 09:37:25;;;;;;;6.70;2.40;;;12.00;72.00;;;;;;5031880;28;20197;-76
2023/11/20 09:39:53;;;;;;;9.20;2.27;;;12.10;72.30;;;;;;5032916;28;20239;-76
2023/11/20 09:42:23;;;;;;;8.40;2.10;;;12.10;71.80;;;;;;5033047;28;20185;-76
2023/11/20 09:44:49;;;;;;;5.90;1.83;;;12.10;72.00;;;;;;5036734;28;21070;-76
2023/11/20 09:47:16;;;;;;;5.90;2.10;;;12.20;71.60;;;;;;5037192;28;20447;-76
2023/11/20 09:49:44;;;;;;;7.07;2.23;;;12.20;71.30;;;;;;5035282;28;20454;-76
2023/11/20 09:52:11;;;;;;;3.00;1.57;;;12.30;70.70;;;;;;5035825;28;20562;-78
2023/11/20 09:54:43;;;;;;;6.47;2.50;;;12.40;69.90;;;;;;5035646;28;20459;-75
2023/11/20 09:57:09;;;;;;;6.77;2.60;;;12.40;69.90;;;;;;5035518;28;20435;-76
2023/11/20 09:59:35;;;;;;;8.50;2.00;;;12.40;69.80;;;;;;5037764;28;20431;-74
2023/11/20 10:02:02;;;;;;;5.60;1.87;;;12.40;69.70;;;;;;5035651;28;20502;-75
2023/11/20 10:04:29;;;;;;;8.83;1.87;;;12.50;69.80;;;;;;5034522;28;20549;-75
2023/11/20 10:06:56;;;;;;;8.43;2.03;;;12.60;69.50;;;;;;5034926;28;20492;-76
2023/11/20 10:09:22;;;;;;;6.27;1.53;;;12.60;68.90;;;;;;5035181;28;20892;-76
2023/11/20 10:11:52;;;;;;;9.33;2.37;;;12.60;68.90;;;;;;5037227;28;20545;-76
2023/11/20 10:14:19;;;;;;;8.97;3.43;;;12.70;68.80;;;;;;5036608;28;20532;-78
2023/11/20 10:16:46;;;;;;;5.60;2.07;;;12.80;68.00;;;;;;5019485;28;20451;-76
2023/11/20 10:19:14;;;;;;;2.33;1.07;;;13.00;67.60;;;;;;5041375;28;20455;-76
2023/11/20 10:21:40;;;;;;;5.17;2.00;;;13.00;67.20;;;;;;5036714;28;20518;-78
2023/11/20 10:24:07;;;;;;;5.30;1.50;;;12.90;67.60;;;;;;5037560;28;20439;-75
2023/11/20 10:26:33;;;;;;;8.20;1.97;;;12.70;67.70;;;;;;5038517;28;20412;-76
2023/11/20 10:29:00;;;;;;;7.73;2.57;;;12.60;68.90;;;;;;5037897;28;20514;-75
2023/11/20 10:31:31;;;;;;;4.90;2.43;;;12.60;68.90;;;;;;5036087;28;20471;-76
2023/11/20 10:34:07;;;;;;;8.03;1.87;;;12.40;70.40;;;;;;5034944;28;20459;-76
2023/11/20 10:36:35;;;;;;;5.60;1.73;;;12.20;71.30;;;;;;5034612;28;20518;-75
2023/11/20 10:39:01;;;;;;;3.60;1.83;;;12.10;71.10;;;;;;5035520;28;20435;-76
2023/11/20 10:41:29;;;;;;;8.60;2.60;;;12.10;72.10;;;;;;5035395;28;20430;-75
2023/11/20 10:43:55;;;;;;;9.87;1.93;;;12.00;73.20;;;;;;5035419;28;20501;-76
2023/11/20 10:46:23;;;;;;;8.90;2.73;;;12.00;73.20;;;;;;5035502;28;20419;-75
2023/11/20 10:48:49;;;;;;;5.50;1.90;;;12.00;73.60;;;;;;5033797;28;20459;-76
2023/11/20 10:51:18;;;;;;;4.43;1.90;;;12.00;73.30;;;;;;5033667;28;20529;-75
2023/11/20 10:53:58;;;;;;;6.47;1.80;;;12.00;73.60;;;;;;5033075;28;20279;-76
2023/11/20 10:56:26;;;;;;;4.97;1.93;;;12.00;73.50;;;;;;5033820;28;20434;-75
2023/11/20 10:58:54;;;;;;;4.97;2.13;;;12.00;73.30;;;;;;5034208;28;20833;-76
2023/11/20 11:01:20;;;;;;;9.90;1.90;;;12.00;74.00;;;;;;5016749;28;20510;-78
2023/11/20 11:03:46;;;;;;;7.93;2.10;;;11.90;75.70;;;;;;5033984;28;20531;-75
2023/11/20 11:06:12;;;;;;;10.93;2.27;;;11.70;76.50;;;;;;5036629;28;20235;-76
2023/11/20 11:08:41;;;;;;;9.30;1.97;;;11.50;77.10;;;;;;5034290;28;20428;-76
2023/11/20 11:11:08;;;;;;;16.20;2.00;;;11.50;77.80;;;;;;5033842;28;20815;-75
2023/11/20 11:13:36;;;;;;;10.87;2.50;;;11.50;77.70;;;;;;5033005;28;20506;-78
2023/11/20 11:16:06;;;;;;;3.60;1.80;;;11.50;78.00;;;;;;5034147;28;20951;-76
2023/11/20 11:18:34;;;;;;;7.50;2.00;;;11.40;78.00;;;;;;5032923;28;20432;-75
2023/11/20 11:21:01;;;;;;;4.73;1.90;;;11.60;77.40;;;;;;5033631;28;20796;-76
2023/11/20 11:23:40;;;;;;;9.50;2.57;;;11.70;76.70;;;;;;5040325;28;20443;-75
2023/11/20 11:26:27;;;;;;;6.20;1.80;;;11.80;76.50;;;;;;5041642;28;20438;-76
2023/11/20 11:28:56;;;;;;;5.33;1.90;;;11.90;76.70;;;;;;5033415;28;20427;-75
2023/11/20 11:31:36;;;;;;;7.53;1.97;;;12.00;76.70;;;;;;5033010;28;20991;-75
2023/11/20 11:34:22;;;;;;;4.40;1.80;;;12.10;77.10;;;;;;5033008;28;20447;-75
2023/11/20 11:37:05;;;;;;;4.13;1.80;;;12.20;77.00;;;;;;5032814;28;20548;-76
2023/11/20 11:39:38;;;;;;;3.77;1.60;;;12.30;75.10;;;;;;5032689;28;20431;-76
2023/11/20 11:42:14;;;;;;;3.00;1.20;;;12.30;73.30;;;;;;5032929;28;20431;-73
2023/11/20 11:44:43;;;;;;;10.43;1.70;;;12.20;72.90;;;;;;5032429;28;20485;-74
2023/11/20 11:47:13;;;;;;;7.80;1.40;;;12.10;73.50;;;;;;5032154;28;20632;-78
2023/11/20 11:49:50;;;;;;;4.03;1.20;;;11.90;73.60;;;;;;5032909;28;20531;-74
2023/11/20 11:52:27;;;;;;;3.20;1.40;;;11.80;73.70;;;;;;5032841;28;20910;-76
2023/11/20 11:55:15;;;;;;;5.67;1.80;;;11.70;73.70;;;;;;5031938;28;20537;-75
2023/11/20 11:57:46;;;;;;;3.83;1.23;;;11.70;73.50;;;;;;5032265;28;20439;-76
2023/11/20 12:00:14;;;;;;;4.90;1.10;;;11.60;73.90;;;;;;5032510;28;20799;-75
2023/11/20 12:03:11;;;;;;;1.77;0.97;;;11.60;73.20;;;;;;5032231;28;20420;-76
2023/11/20 12:06:13;;;;;;;1.83;1.10;;;11.70;73.20;;;;;;5032006;28;20503;-74
2023/11/20 12:08:39;;;;;;;4.10;1.20;;;11.60;73.00;;;;;;5008622;28;20996;-75
2023/11/20 12:11:05;;;;;;;3.27;1.47;;;11.70;73.00;;;;;;5032508;28;20471;-75
2023/11/20 12:13:31;;;;;;;2.63;0.93;;;11.70;73.20;;;;;;5032295;28;20452;-77
2023/11/20 12:16:06;;;;;;;3.77;1.67;;;11.90;73.30;;;;;;5034848;28;20494;-75
2023/11/20 12:18:33;;;;;;;2.90;1.10;;;12.00;72.30;;;;;;5033273;28;20462;-76
2023/11/20 12:21:07;;;;;;;3.43;1.03;;;12.20;72.00;;;;;;5033726;28;20455;-76
2023/11/20 12:23:42;;;;;;;2.60;0.90;;;12.20;71.10;;;;;;5032578;28;20440;-75
2023/11/20 12:26:10;;;;;;;2.20;1.07;;;12.20;71.10;;;;;;5033943;28;20427;-76
2023/11/20 12:28:38;;;;;;;6.17;1.60;;;12.20;71.30;;;;;;5052719;28;20519;-75
2023/11/20 12:31:05;;;;;;;2.33;1.20;;;12.30;71.00;;;;;;5054011;28;20497;-75
2023/11/20 12:33:32;;;;;;;1.57;1.00;;;12.20;71.30;;;;;;5052473;28;20493;-76
2023/11/20 12:35:59;;;;;;;2.10;1.33;;;12.10;71.30;;;;;;5053282;28;20912;-75
2023/11/20 12:38:29;;;;;;;5.47;1.13;;;12.00;71.80;;;;;;5052008;28;20943;-76
2023/11/20 12:40:54;;;;;;;5.47;1.77;;;11.90;73.50;;;;;;5052068;28;20438;-76
2023/11/20 12:43:26;;;;;;;2.47;0.90;;;11.80;75.70;;;;;;5051573;28;20791;-75